Time;durP1;ratioP1;P1;durP2;ratioP2;P2;SDS_P1;SDS_P2;PMS_P1;PMS_P2;Temp;Humidity;BMP_temperature;BMP_pressure;BME280_temperature;BME280_humidity;BME280_pressure;Samples;Min_cycle;Max_cycle;Signal;HPM_P1;HPM_P2
2022/08/12 00:44:14;;;;;;;;;15.00;14.50;;;;;;;;5104510;27;61687;-79
2022/08/12 00:47:05;;;;;;;;;18.50;13.75;;;;;;;;5104846;27;61919;-79
2022/08/12 00:49:31;;;;;;;;;20.25;17.00;;;;;;;;5103174;27;62120;-79
2022/08/12 00:52:07;;;;;;;;;16.50;15.75;;;;;;;;5103715;27;61969;-79
2022/08/12 00:54:36;;;;;;;;;19.75;17.00;;;;;;;;5103197;27;61924;-79
2022/08/12 00:57:06;;;;;;;;;16.75;13.00;;;;;;;;5105080;27;61684;-79
2022/08/12 00:59:33;;;;;;;;;12.00;11.75;;;;;;;;5102762;27;63558;-79
2022/08/12 01:01:59;;;;;;;;;15.50;15.00;;;;;;;;5104588;27;62089;-79
2022/08/12 01:12:40;;;;;;;;;13.00;11.50;;;;;;;;5104361;27;61900;-79
2022/08/12 01:15:06;;;;;;;;;12.50;12.25;;;;;;;;5104808;27;61841;-79
2022/08/12 01:17:32;;;;;;;;;11.75;9.50;;;;;;;;5103220;27;62037;-79
2022/08/12 01:20:01;;;;;;;;;12.75;12.50;;;;;;;;5103757;27;62989;-79
2022/08/12 01:22:36;;;;;;;;;14.75;13.25;;;;;;;;5103172;27;62033;-79
2022/08/12 01:25:19;;;;;;;;;12.75;10.75;;;;;;;;5102931;27;61899;-79
2022/08/12 01:27:45;;;;;;;;;14.50;14.50;;;;;;;;5104255;27;62066;-79
2022/08/12 01:30:12;;;;;;;;;15.00;12.00;;;;;;;;5103672;27;62808;-79
2022/08/12 01:32:38;;;;;;;;;14.00;14.00;;;;;;;;5102629;27;61772;-79
2022/08/12 01:35:06;;;;;;;;;11.00;11.00;;;;;;;;5103125;27;61705;-79
2022/08/12 01:37:35;;;;;;;;;11.75;10.00;;;;;;;;5104610;27;62061;-79
2022/08/12 01:40:02;;;;;;;;;11.75;10.50;;;;;;;;5102523;27;64638;-79
2022/08/12 01:42:31;;;;;;;;;12.75;10.25;;;;;;;;5101964;27;61745;-79
2022/08/12 01:44:57;;;;;;;;;11.50;11.00;;;;;;;;5102603;27;61726;-79
2022/08/12 01:47:25;;;;;;;;;9.50;9.00;;;;;;;;5103761;27;61879;-79
2022/08/12 01:50:04;;;;;;;;;11.75;11.75;;;;;;;;5103569;27;61952;-79
2022/08/12 01:52:48;;;;;;;;;14.25;13.75;;;;;;;;5102617;27;61915;-79
2022/08/12 01:55:14;;;;;;;;;12.25;12.00;;;;;;;;5103350;27;61709;-79
2022/08/12 01:57:46;;;;;;;;;11.75;11.75;;;;;;;;5102276;27;61902;-79
2022/08/12 02:00:13;;;;;;;;;13.25;13.25;;;;;;;;5102211;27;63780;-79
2022/08/12 02:02:43;;;;;;;;;12.75;12.75;;;;;;;;5102081;27;61905;-79
2022/08/12 02:11:15;;;;;;;;;11.00;11.00;;;;;;;;5102549;27;62383;-79
2022/08/12 02:13:59;;;;;;;;;13.00;12.25;;;;;;;;5103923;27;61912;-79
2022/08/12 02:16:44;;;;;;;;;12.00;11.00;;;;;;;;5103419;27;62176;-79
2022/08/12 02:19:42;;;;;;;;;12.75;11.25;;;;;;;;5103826;27;61938;-79
2022/08/12 02:22:07;;;;;;;;;11.50;10.50;;;;;;;;5059603;28;62881;-79
2022/08/12 02:24:36;;;;;;;;;13.25;12.00;;;;;;;;5059427;28;61722;-79
2022/08/12 02:27:03;;;;;;;;;14.75;11.75;;;;;;;;5043707;28;61924;-79
2022/08/12 02:29:28;;;;;;;;;15.00;12.00;;;;;;;;5043444;28;61830;-79
2022/08/12 02:31:54;;;;;;;;;12.25;12.25;;;;;;;;5042398;28;64800;-79
2022/08/12 02:34:21;;;;;;;;;11.75;10.25;;;;;;;;5043370;28;61985;-79
2022/08/12 02:36:47;;;;;;;;;17.25;13.00;;;;;;;;5043578;28;61774;-79
2022/08/12 02:39:14;;;;;;;;;12.50;11.00;;;;;;;;5059913;28;61978;-79
2022/08/12 02:41:42;;;;;;;;;10.75;9.75;;;;;;;;5059716;28;62272;-79
2022/08/12 02:44:08;;;;;;;;;13.25;11.00;;;;;;;;5042953;28;62003;-79
2022/08/12 02:46:34;;;;;;;;;10.00;9.50;;;;;;;;5059480;28;62151;-79
2022/08/12 02:49:18;;;;;;;;;12.25;11.75;;;;;;;;5043222;28;61895;-79
2022/08/12 02:51:43;;;;;;;;;15.00;12.25;;;;;;;;5059723;28;61849;-79
2022/08/12 02:54:09;;;;;;;;;18.50;12.00;;;;;;;;5059162;28;61773;-79
2022/08/12 02:56:39;;;;;;;;;13.50;13.00;;;;;;;;5043571;28;61762;-79
2022/08/12 02:59:10;;;;;;;;;11.25;9.50;;;;;;;;5081486;28;61691;-79
2022/08/12 03:01:38;;;;;;;;;11.00;11.00;;;;;;;;5080375;28;65270;-79
2022/08/12 03:04:06;;;;;;;;;11.00;11.00;;;;;;;;5081279;28;62016;-79
2022/08/12 03:06:33;;;;;;;;;12.00;11.50;;;;;;;;5082541;27;61777;-79
2022/08/12 03:09:00;;;;;;;;;19.25;12.25;;;;;;;;5082331;27;61758;-79
2022/08/12 03:11:30;;;;;;;;;10.75;10.75;;;;;;;;5082099;27;61888;-79
2022/08/12 03:13:59;;;;;;;;;15.00;12.75;;;;;;;;5082771;28;61914;-79
2022/08/12 03:16:29;;;;;;;;;11.50;10.50;;;;;;;;5082221;28;62161;-79
2022/08/12 03:18:54;;;;;;;;;9.25;9.00;;;;;;;;5082557;27;62020;-79
2022/08/12 03:21:20;;;;;;;;;9.75;9.50;;;;;;;;5080322;28;63677;-80
2022/08/12 03:23:46;;;;;;;;;10.00;10.00;;;;;;;;5081370;28;61828;-79
2022/08/12 03:26:13;;;;;;;;;12.50;10.00;;;;;;;;5086206;28;62052;-79
2022/08/12 03:28:56;;;;;;;;;9.75;9.75;;;;;;;;5085782;27;61666;-79
2022/08/12 03:31:34;;;;;;;;;10.25;10.25;;;;;;;;5083591;28;64679;-79
2022/08/12 03:34:01;;;;;;;;;12.75;10.00;;;;;;;;5084609;28;61967;-79
2022/08/12 03:36:27;;;;;;;;;10.75;8.25;;;;;;;;5084636;28;62032;-79
2022/08/12 03:41:44;;;;;;;;;11.50;11.25;;;;;;;;5085004;28;62076;-79
2022/08/12 04:01:08;;;;;;;;;9.25;9.25;;;;;;;;5106080;27;61682;-79
2022/08/12 04:03:52;;;;;;;;;10.50;9.75;;;;;;;;5104880;27;61994;-79
2022/08/12 04:06:20;;;;;;;;;13.25;11.50;;;;;;;;5105620;27;61981;-79
2022/08/12 04:08:48;;;;;;;;;11.00;10.00;;;;;;;;5105635;27;61690;-79
2022/08/12 04:14:06;;;;;;;;;9.75;9.75;;;;;;;;5105300;27;61752;-79
2022/08/12 04:16:31;;;;;;;;;9.00;8.50;;;;;;;;5103806;27;61791;-79
2022/08/12 04:18:57;;;;;;;;;11.50;11.00;;;;;;;;5105785;27;62464;-79
2022/08/12 04:21:22;;;;;;;;;14.25;10.50;;;;;;;;5105429;27;61786;-79
2022/08/12 04:23:48;;;;;;;;;11.75;10.75;;;;;;;;5104700;27;61888;-79
2022/08/12 04:26:13;;;;;;;;;15.25;12.25;;;;;;;;5104115;27;61756;-80
2022/08/12 04:28:38;;;;;;;;;12.50;11.00;;;;;;;;5104037;27;61765;-79
2022/08/12 04:31:03;;;;;;;;;14.75;11.00;;;;;;;;5104471;27;62085;-79
2022/08/12 04:33:31;;;;;;;;;11.00;9.25;;;;;;;;5104514;27;61785;-79
2022/08/12 04:35:56;;;;;;;;;18.50;11.75;;;;;;;;5103156;27;61989;-79
2022/08/12 04:38:22;;;;;;;;;12.75;11.00;;;;;;;;5103907;27;62411;-79
2022/08/12 04:40:48;;;;;;;;;12.00;12.00;;;;;;;;5105118;27;61772;-79
2022/08/12 04:43:13;;;;;;;;;12.50;11.25;;;;;;;;5104688;27;62793;-79
2022/08/12 04:45:39;;;;;;;;;12.00;9.75;;;;;;;;5104929;27;61762;-79
2022/08/12 04:48:05;;;;;;;;;11.00;10.00;;;;;;;;5103486;27;62001;-79
2022/08/12 04:50:31;;;;;;;;;10.00;10.00;;;;;;;;5103730;27;61999;-79
2022/08/12 04:52:59;;;;;;;;;12.50;12.50;;;;;;;;5103752;27;62925;-78
2022/08/12 04:55:25;;;;;;;;;15.50;13.00;;;;;;;;5105199;27;61741;-79
2022/08/12 04:57:50;;;;;;;;;11.50;10.00;;;;;;;;5103486;27;61926;-79
2022/08/12 05:00:15;;;;;;;;;13.00;11.75;;;;;;;;5103928;27;62103;-79
2022/08/12 05:02:41;;;;;;;;;11.75;9.50;;;;;;;;5102197;27;63694;-79
2022/08/12 05:05:09;;;;;;;;;11.50;10.00;;;;;;;;5104452;27;61737;-79
2022/08/12 05:07:35;;;;;;;;;10.50;10.00;;;;;;;;5104757;27;61694;-79
2022/08/12 05:10:01;;;;;;;;;11.50;8.50;;;;;;;;5103906;27;61720;-79
2022/08/12 05:12:27;;;;;;;;;13.50;11.50;;;;;;;;5102995;27;64712;-79
2022/08/12 05:14:52;;;;;;;;;9.75;9.75;;;;;;;;5103346;27;61780;-79
2022/08/12 05:17:18;;;;;;;;;11.25;9.25;;;;;;;;5104385;27;62816;-79
2022/08/12 05:19:43;;;;;;;;;11.50;9.25;;;;;;;;5104446;27;62048;-79
2022/08/12 05:22:08;;;;;;;;;12.25;9.75;;;;;;;;5102722;27;63674;-79
2022/08/12 05:24:33;;;;;;;;;13.00;11.00;;;;;;;;5104519;27;61758;-79
2022/08/12 05:26:59;;;;;;;;;16.00;10.25;;;;;;;;5102957;27;61808;-79
2022/08/12 05:29:24;;;;;;;;;10.50;10.50;;;;;;;;5104730;27;61776;-79
2022/08/12 05:31:55;;;;;;;;;11.00;11.00;;;;;;;;5102103;27;64555;-80
2022/08/12 05:34:20;;;;;;;;;11.50;11.25;;;;;;;;5104318;27;61795;-80
2022/08/12 05:36:46;;;;;;;;;14.50;9.50;;;;;;;;5102781;27;61774;-83
2022/08/12 05:39:11;;;;;;;;;12.25;10.75;;;;;;;;5102985;27;62019;-80
2022/08/12 05:41:36;;;;;;;;;12.25;10.00;;;;;;;;5102074;27;63533;-79
2022/08/12 05:44:07;;;;;;;;;40.50;32.00;;;;;;;;5102713;27;62093;-86
2022/08/12 05:46:34;;;;;;;;;13.00;11.25;;;;;;;;5101324;27;61680;-77
2022/08/12 05:49:04;;;;;;;;;13.50;9.50;;;;;;;;5103823;27;61683;-78
2022/08/12 05:51:32;;;;;;;;;13.25;10.75;;;;;;;;5103316;27;61852;-78
2022/08/12 05:53:57;;;;;;;;;10.00;10.00;;;;;;;;5101326;27;62216;-77
2022/08/12 05:56:25;;;;;;;;;10.00;10.00;;;;;;;;5103427;27;61946;-76
2022/08/12 05:58:52;;;;;;;;;13.00;8.75;;;;;;;;5103424;27;61856;-76
2022/08/12 06:01:18;;;;;;;;;10.25;10.25;;;;;;;;5101253;27;64695;-76
2022/08/12 06:03:43;;;;;;;;;10.75;9.50;;;;;;;;5102717;27;61927;-77
2022/08/12 06:06:09;;;;;;;;;11.25;10.25;;;;;;;;5103484;27;62032;-76
2022/08/12 06:08:34;;;;;;;;;10.00;10.00;;;;;;;;5103223;27;63051;-75
2022/08/12 06:11:01;;;;;;;;;13.50;11.50;;;;;;;;5098304;27;63674;-74
2022/08/12 06:13:26;;;;;;;;;14.25;11.00;;;;;;;;5103256;27;61921;-75
2022/08/12 06:15:52;;;;;;;;;15.75;13.00;;;;;;;;5101562;27;61925;-75
2022/08/12 06:18:18;;;;;;;;;12.25;10.50;;;;;;;;5103076;27;61954;-75
2022/08/12 06:20:46;;;;;;;;;11.00;9.25;;;;;;;;5103042;27;61812;-74
2022/08/12 06:23:14;;;;;;;;;11.00;10.25;;;;;;;;5101909;27;61763;-74
2022/08/12 06:25:39;;;;;;;;;12.75;9.25;;;;;;;;5103685;27;61962;-76
2022/08/12 06:28:13;;;;;;;;;10.75;10.00;;;;;;;;5103579;27;61705;-76
2022/08/12 06:30:39;;;;;;;;;12.75;11.75;;;;;;;;5101777;27;64202;-76
2022/08/12 06:33:05;;;;;;;;;12.00;12.00;;;;;;;;5102259;27;62058;-77
2022/08/12 06:35:30;;;;;;;;;13.25;13.25;;;;;;;;5100961;27;61878;-78
2022/08/12 06:37:56;;;;;;;;;13.50;11.00;;;;;;;;5101982;27;61862;-77
2022/08/12 06:43:13;;;;;;;;;14.25;11.50;;;;;;;;5059649;28;62049;-77
2022/08/12 06:45:43;;;;;;;;;13.75;9.00;;;;;;;;5051267;28;61711;-76
2022/08/12 06:48:09;;;;;;;;;12.50;11.50;;;;;;;;5041966;28;62195;-77
2022/08/12 06:50:34;;;;;;;;;10.25;8.75;;;;;;;;5030495;28;63848;-79
2022/08/12 06:53:00;;;;;;;;;13.00;8.00;;;;;;;;5050357;28;62023;-77
2022/08/12 06:55:26;;;;;;;;;7.50;7.50;;;;;;;;5048754;28;61872;-77
2022/08/12 06:57:53;;;;;;;;;9.25;8.75;;;;;;;;5045627;28;61999;-77
2022/08/12 07:00:21;;;;;;;;;7.50;7.50;;;;;;;;5042389;28;62089;-77
2022/08/12 07:02:46;;;;;;;;;7.75;6.25;;;;;;;;5042941;28;62053;-77
2022/08/12 07:05:11;;;;;;;;;9.00;7.00;;;;;;;;5042968;28;61999;-77
2022/08/12 07:07:37;;;;;;;;;9.50;8.50;;;;;;;;5053999;28;62328;-77
2022/08/12 07:10:03;;;;;;;;;11.00;10.00;;;;;;;;5060885;28;61981;-77
2022/08/12 07:12:29;;;;;;;;;8.00;8.00;;;;;;;;5046201;28;61805;-77
2022/08/12 07:14:57;;;;;;;;;10.00;10.00;;;;;;;;5045976;28;61842;-77
2022/08/12 07:17:23;;;;;;;;;9.25;7.00;;;;;;;;5056050;28;62411;-78
2022/08/12 07:19:50;;;;;;;;;11.50;8.75;;;;;;;;5070650;27;62570;-77
2022/08/12 07:22:15;;;;;;;;;9.50;9.50;;;;;;;;5105720;27;62184;-77
2022/08/12 07:24:41;;;;;;;;;9.50;7.25;;;;;;;;5103824;27;61950;-77
2022/08/12 07:27:06;;;;;;;;;9.75;8.00;;;;;;;;5104086;27;62575;-77
2022/08/12 07:29:31;;;;;;;;;9.75;8.75;;;;;;;;5103393;27;65033;-77
2022/08/12 07:31:58;;;;;;;;;10.50;8.25;;;;;;;;5105553;27;62021;-77
2022/08/12 07:34:23;;;;;;;;;6.25;6.25;;;;;;;;5103820;27;62236;-77
2022/08/12 07:36:48;;;;;;;;;9.75;6.75;;;;;;;;5096720;27;62192;-77
2022/08/12 07:39:14;;;;;;;;;10.50;8.25;;;;;;;;5084803;28;63066;-77
2022/08/12 07:41:40;;;;;;;;;7.75;7.75;;;;;;;;5100903;27;61796;-77
2022/08/12 07:44:06;;;;;;;;;8.25;6.75;;;;;;;;5096270;27;61731;-77
2022/08/12 07:46:37;;;;;;;;;8.75;8.00;;;;;;;;5104283;27;61760;-77
2022/08/12 07:49:07;;;;;;;;;9.50;6.75;;;;;;;;5105014;27;62371;-78
2022/08/12 07:51:32;;;;;;;;;7.00;7.00;;;;;;;;5104522;27;61869;-77
2022/08/12 07:53:59;;;;;;;;;8.25;6.75;;;;;;;;5105376;27;61684;-78
2022/08/12 07:56:25;;;;;;;;;8.00;8.00;;;;;;;;5105942;27;62000;-77
2022/08/12 07:58:50;;;;;;;;;8.33;5.67;;;;;;;;5104749;27;61850;-77
2022/08/12 08:01:20;;;;;;;;;7.75;5.25;;;;;;;;5105696;27;62026;-77
2022/08/12 08:06:30;;;;;;;;;9.00;9.00;;;;;;;;5105664;27;61776;-77
2022/08/12 08:08:57;;;;;;;;;7.33;5.33;;;;;;;;5097485;27;61996;-77
2022/08/12 08:14:08;;;;;;;;;8.00;7.00;;;;;;;;5103384;27;62220;-78
2022/08/12 08:16:36;;;;;;;;;8.00;6.67;;;;;;;;5105405;27;61788;-77
2022/08/12 08:19:01;;;;;;;;;8.33;7.00;;;;;;;;5103153;27;63658;-77
2022/08/12 08:21:32;;;;;;;;;6.75;6.75;;;;;;;;5104142;27;62025;-78
2022/08/12 08:24:13;;;;;;;;;8.00;8.00;;;;;;;;5103856;27;62094;-78
2022/08/12 08:26:39;;;;;;;;;8.50;5.50;;;;;;;;5104227;27;62002;-78
2022/08/12 08:29:04;;;;;;;;;8.67;6.33;;;;;;;;5104196;27;61719;-77
2022/08/12 08:31:29;;;;;;;;;8.00;6.75;;;;;;;;5105291;27;61643;-78
2022/08/12 08:33:55;;;;;;;;;7.75;6.50;;;;;;;;5103528;27;61913;-77
2022/08/12 08:36:20;;;;;;;;;4.67;4.33;;;;;;;;5094181;27;62148;-78
2022/08/12 08:38:45;;;;;;;;;6.50;4.75;;;;;;;;5084229;28;62947;-78
2022/08/12 08:43:58;;;;;;;;;9.25;5.75;;;;;;;;5096020;27;61678;-78
2022/08/12 08:46:24;;;;;;;;;7.00;7.00;;;;;;;;5084774;28;61725;-77
2022/08/12 08:48:49;;;;;;;;;6.33;5.67;;;;;;;;5083665;27;61819;-78
2022/08/12 08:51:15;;;;;;;;;7.25;5.25;;;;;;;;5083143;28;62199;-78
2022/08/12 08:53:42;;;;;;;;;3.00;3.00;;;;;;;;5082666;28;61945;-77
2022/08/12 08:56:09;;;;;;;;;4.33;4.33;;;;;;;;5082645;28;62256;-77
2022/08/12 08:58:36;;;;;;;;;5.33;5.00;;;;;;;;5083818;28;61824;-78
2022/08/12 09:01:03;;;;;;;;;8.00;7.00;;;;;;;;5083062;28;61882;-78
2022/08/12 09:03:29;;;;;;;;;8.00;5.00;;;;;;;;5091372;27;61690;-77
2022/08/12 09:05:54;;;;;;;;;5.67;3.67;;;;;;;;5104200;27;62147;-77
2022/08/12 09:08:21;;;;;;;;;4.67;4.00;;;;;;;;5103219;27;62671;-78
2022/08/12 09:10:47;;;;;;;;;5.50;5.50;;;;;;;;5102414;27;62081;-77
2022/08/12 09:13:27;;;;;;;;;3.67;3.67;;;;;;;;5102488;27;61887;-78
2022/08/12 09:15:53;;;;;;;;;5.33;4.67;;;;;;;;5103224;27;61773;-78
2022/08/12 09:18:18;;;;;;;;;6.00;4.50;;;;;;;;5102890;27;62157;-78
2022/08/12 09:20:44;;;;;;;;;7.33;5.00;;;;;;;;5103600;27;61876;-77
2022/08/12 09:23:11;;;;;;;;;5.67;5.67;;;;;;;;5103226;27;61860;-77
2022/08/12 09:25:37;;;;;;;;;3.67;3.67;;;;;;;;5102817;27;61855;-77
2022/08/12 09:28:03;;;;;;;;;4.67;4.67;;;;;;;;5103108;27;62858;-77
2022/08/12 09:30:29;;;;;;;;;5.67;4.67;;;;;;;;5104254;27;61712;-78
2022/08/12 09:32:55;;;;;;;;;5.00;4.00;;;;;;;;5104017;27;61757;-78
2022/08/12 09:35:22;;;;;;;;;5.33;4.67;;;;;;;;5104309;27;61898;-78
2022/08/12 09:37:48;;;;;;;;;5.67;4.00;;;;;;;;5103127;27;61866;-77
2022/08/12 09:40:14;;;;;;;;;5.00;3.67;;;;;;;;5102426;27;61781;-77
2022/08/12 09:45:23;;;;;;;;;5.00;4.33;;;;;;;;5104216;27;61699;-78
2022/08/12 09:47:49;;;;;;;;;4.67;4.67;;;;;;;;5103107;27;61661;-78
2022/08/12 09:50:15;;;;;;;;;5.00;5.00;;;;;;;;5104041;27;62154;-78
2022/08/12 09:52:42;;;;;;;;;5.75;5.75;;;;;;;;5102160;27;62004;-78
2022/08/12 09:55:10;;;;;;;;;5.67;5.00;;;;;;;;5102567;27;61841;-77
2022/08/12 09:57:35;;;;;;;;;5.00;5.00;;;;;;;;5099302;27;63880;-78
2022/08/12 10:00:01;;;;;;;;;4.67;4.67;;;;;;;;5101809;27;61898;-78
2022/08/12 10:02:26;;;;;;;;;8.67;5.67;;;;;;;;5102778;27;61745;-78
2022/08/12 10:04:56;;;;;;;;;5.33;4.00;;;;;;;;5102354;27;61875;-78
2022/08/12 10:07:22;;;;;;;;;4.67;2.67;;;;;;;;5102742;27;61910;-78
2022/08/12 10:09:47;;;;;;;;;5.67;4.67;;;;;;;;5102372;27;61883;-78
2022/08/12 10:14:56;;;;;;;;;5.33;5.33;;;;;;;;5104093;27;61825;-78
2022/08/12 10:17:22;;;;;;;;;5.67;4.00;;;;;;;;5102245;27;61755;-79
2022/08/12 10:19:48;;;;;;;;;5.00;5.00;;;;;;;;5103030;27;61682;-80
2022/08/12 10:22:14;;;;;;;;;5.00;4.67;;;;;;;;5103458;27;61703;-79
2022/08/12 10:24:39;;;;;;;;;7.00;4.33;;;;;;;;5100661;27;61701;-77
2022/08/12 10:29:49;;;;;;;;;4.00;4.00;;;;;;;;5101379;27;61948;-81
2022/08/12 10:32:19;;;;;;;;;4.67;3.33;;;;;;;;5100747;27;61845;-80
2022/08/12 10:34:46;;;;;;;;;4.00;4.00;;;;;;;;5103210;27;61900;-77
2022/08/12 10:37:11;;;;;;;;;4.33;4.33;;;;;;;;5102006;27;61873;-78
2022/08/12 10:39:38;;;;;;;;;6.33;5.67;;;;;;;;5101952;27;62113;-76
2022/08/12 10:45:02;;;;;;;;;4.67;4.67;;;;;;;;5100298;27;61810;-77
2022/08/12 10:47:28;;;;;;;;;3.00;3.00;;;;;;;;5100534;27;63656;-78
2022/08/12 10:49:53;;;;;;;;;3.00;3.00;;;;;;;;5102208;27;61796;-78
2022/08/12 10:52:23;;;;;;;;;4.67;3.67;;;;;;;;5101159;27;61879;-80
2022/08/12 10:54:49;;;;;;;;;3.67;3.67;;;;;;;;5101788;27;61867;-80
2022/08/12 10:57:15;;;;;;;;;4.33;4.33;;;;;;;;5102151;27;63079;-80
2022/08/12 10:59:41;;;;;;;;;8.00;5.00;;;;;;;;5102157;27;61942;-79
2022/08/12 11:02:07;;;;;;;;;4.00;4.00;;;;;;;;5102064;27;61950;-79
2022/08/12 11:04:34;;;;;;;;;6.00;4.33;;;;;;;;5100534;27;61936;-79
2022/08/12 11:06:59;;;;;;;;;5.00;5.00;;;;;;;;5100423;27;64251;-79
2022/08/12 11:09:31;;;;;;;;;4.00;4.00;;;;;;;;5102092;27;62044;-79
2022/08/12 11:11:58;;;;;;;;;4.00;4.00;;;;;;;;5102496;27;61834;-78
2022/08/12 11:14:33;;;;;;;;;5.00;4.00;;;;;;;;5102609;27;61869;-77
2022/08/12 11:16:59;;;;;;;;;4.00;4.00;;;;;;;;5100580;27;63756;-77
2022/08/12 11:19:25;;;;;;;;;5.33;4.00;;;;;;;;5102689;27;61757;-77
2022/08/12 11:21:51;;;;;;;;;3.67;3.67;;;;;;;;5101994;27;61712;-77
2022/08/12 11:24:17;;;;;;;;;6.00;6.00;;;;;;;;5102655;27;61832;-77
2022/08/12 11:26:42;;;;;;;;;6.33;5.00;;;;;;;;5099952;27;63631;-78
2022/08/12 11:29:07;;;;;;;;;5.33;4.00;;;;;;;;5101937;27;61765;-77
2022/08/12 11:31:32;;;;;;;;;5.33;4.00;;;;;;;;5102115;27;62023;-77
2022/08/12 11:33:58;;;;;;;;;4.33;4.33;;;;;;;;5101899;27;61751;-77
2022/08/12 11:36:23;;;;;;;;;6.00;5.00;;;;;;;;5101181;27;61901;-78
2022/08/12 11:38:49;;;;;;;;;5.00;3.00;;;;;;;;5101989;27;62062;-78
2022/08/12 11:41:15;;;;;;;;;3.00;3.00;;;;;;;;5101039;27;61757;-77
2022/08/12 11:43:40;;;;;;;;;5.00;5.00;;;;;;;;5099902;27;61738;-78
2022/08/12 11:46:05;;;;;;;;;5.00;4.33;;;;;;;;5104578;27;61774;-80
2022/08/12 11:48:35;;;;;;;;;7.00;5.00;;;;;;;;5105535;27;61693;-78
2022/08/12 11:51:00;;;;;;;;;4.00;4.00;;;;;;;;5104516;27;61847;-80
2022/08/12 11:53:26;;;;;;;;;6.33;5.00;;;;;;;;5105643;27;61855;-80
2022/08/12 11:55:51;;;;;;;;;4.33;4.33;;;;;;;;5103903;27;63963;-80
2022/08/12 11:58:16;;;;;;;;;6.33;4.00;;;;;;;;5105994;27;61772;-78
2022/08/12 12:00:42;;;;;;;;;4.67;4.33;;;;;;;;5103191;27;61965;-78
2022/08/12 12:03:07;;;;;;;;;3.33;2.00;;;;;;;;5103503;27;62032;-78
2022/08/12 12:05:32;;;;;;;;;5.00;4.00;;;;;;;;5104147;27;61794;-78
2022/08/12 12:07:57;;;;;;;;;2.67;2.67;;;;;;;;5105579;27;61770;-78
2022/08/12 12:10:26;;;;;;;;;3.00;3.00;;;;;;;;5105741;27;62039;-78
2022/08/12 12:12:52;;;;;;;;;4.00;4.00;;;;;;;;5106073;27;61660;-78
2022/08/12 12:15:17;;;;;;;;;5.00;3.00;;;;;;;;5104763;27;61825;-78
2022/08/12 12:17:43;;;;;;;;;4.67;3.67;;;;;;;;5103676;27;61755;-78
2022/08/12 12:20:09;;;;;;;;;2.00;2.00;;;;;;;;5103594;27;61916;-78
2022/08/12 12:22:35;;;;;;;;;3.00;3.00;;;;;;;;5104159;27;62001;-78
2022/08/12 12:25:00;;;;;;;;;4.00;4.00;;;;;;;;5104435;27;61781;-78
2022/08/12 12:27:26;;;;;;;;;3.00;3.00;;;;;;;;5105068;27;61892;-79
2022/08/12 12:29:51;;;;;;;;;3.00;3.00;;;;;;;;5105230;27;62318;-78
2022/08/12 12:32:17;;;;;;;;;3.33;3.33;;;;;;;;5104146;27;62108;-79
2022/08/12 12:34:42;;;;;;;;;4.67;3.67;;;;;;;;5104110;27;61865;-79
2022/08/12 12:37:14;;;;;;;;;4.00;4.00;;;;;;;;5103820;27;61918;-79
2022/08/12 12:39:39;;;;;;;;;5.67;4.33;;;;;;;;5104871;27;61780;-78
2022/08/12 12:42:05;;;;;;;;;3.00;3.00;;;;;;;;5083749;27;61697;-79
2022/08/12 12:44:30;;;;;;;;;4.00;3.00;;;;;;;;5099591;27;63716;-79
2022/08/12 12:46:55;;;;;;;;;5.00;3.00;;;;;;;;5103094;27;61835;-78
2022/08/12 12:49:27;;;;;;;;;4.00;4.00;;;;;;;;5104420;27;61883;-79
2022/08/12 12:51:52;;;;;;;;;3.00;3.00;;;;;;;;5103770;27;61763;-78
2022/08/12 12:54:17;;;;;;;;;4.33;3.33;;;;;;;;5102584;27;64703;-79
2022/08/12 12:56:46;;;;;;;;;4.33;3.33;;;;;;;;5102638;27;61819;-79
2022/08/12 12:59:12;;;;;;;;;3.33;3.33;;;;;;;;5103354;27;62058;-79
2022/08/12 13:01:38;;;;;;;;;3.00;3.00;;;;;;;;5104921;27;61882;-78
2022/08/12 13:04:07;;;;;;;;;3.67;3.67;;;;;;;;5101628;27;64030;-79
2022/08/12 13:06:32;;;;;;;;;3.33;3.33;;;;;;;;5104024;27;61703;-79
2022/08/12 13:08:58;;;;;;;;;3.33;3.33;;;;;;;;5103947;27;61686;-79
2022/08/12 13:11:23;;;;;;;;;2.67;2.67;;;;;;;;5102848;27;62016;-79
2022/08/12 13:13:49;;;;;;;;;3.00;3.00;;;;;;;;5101399;27;64811;-80
2022/08/12 13:16:19;;;;;;;;;2.00;2.00;;;;;;;;5102633;27;61798;-80
2022/08/12 13:18:46;;;;;;;;;3.00;3.00;;;;;;;;5101936;27;62035;-79
2022/08/12 13:21:14;;;;;;;;;3.67;3.67;;;;;;;;5102840;27;61916;-79
2022/08/12 13:23:44;;;;;;;;;3.00;3.00;;;;;;;;5101325;27;65045;-79
2022/08/12 13:26:10;;;;;;;;;3.00;3.00;;;;;;;;5103255;27;61861;-79
2022/08/12 13:28:36;;;;;;;;;3.33;2.67;;;;;;;;5104324;27;61699;-79
2022/08/12 13:31:03;;;;;;;;;4.00;4.00;;;;;;;;5103173;27;61948;-79
2022/08/12 13:33:29;;;;;;;;;3.33;3.00;;;;;;;;5102471;27;61992;-81
2022/08/12 13:36:02;;;;;;;;;4.67;2.67;;;;;;;;5102615;27;61806;-82
2022/08/12 13:38:57;;;;;;;;;4.00;4.00;;;;;;;;5102371;27;61935;-82
2022/08/12 13:41:31;;;;;;;;;7.33;4.00;;;;;;;;5083986;27;61979;-82
2022/08/12 13:44:01;;;;;;;;;4.00;4.00;;;;;;;;5089085;27;62098;-82
2022/08/12 13:46:27;;;;;;;;;2.67;2.67;;;;;;;;5103158;27;61771;-82
2022/08/12 13:48:58;;;;;;;;;5.33;3.33;;;;;;;;5102541;27;61854;-82
2022/08/12 13:51:24;;;;;;;;;3.67;2.67;;;;;;;;5104430;27;61785;-81
2022/08/12 13:53:50;;;;;;;;;3.33;3.00;;;;;;;;5102730;27;62493;-82
2022/08/12 13:56:15;;;;;;;;;3.00;3.00;;;;;;;;5104193;27;61740;-82
2022/08/12 13:58:48;;;;;;;;;3.33;3.33;;;;;;;;5102573;27;62297;-82
2022/08/12 14:01:13;;;;;;;;;4.33;4.33;;;;;;;;5103975;27;61831;-82
2022/08/12 14:03:38;;;;;;;;;6.00;4.67;;;;;;;;5102092;27;61742;-81
2022/08/12 14:06:04;;;;;;;;;2.00;2.00;;;;;;;;5102979;27;61733;-82
2022/08/12 14:08:29;;;;;;;;;2.67;2.67;;;;;;;;5103159;27;61807;-82
2022/08/12 14:10:55;;;;;;;;;4.67;4.33;;;;;;;;5102441;27;62153;-82
2022/08/12 14:13:22;;;;;;;;;4.00;4.00;;;;;;;;5102052;27;63881;-82
2022/08/12 14:15:52;;;;;;;;;4.00;2.67;;;;;;;;5103339;27;61900;-82
2022/08/12 14:18:27;;;;;;;;;4.67;3.67;;;;;;;;5102032;27;62598;-82
2022/08/12 14:21:00;;;;;;;;;3.33;3.33;;;;;;;;5103620;27;62240;-82
2022/08/12 14:23:31;;;;;;;;;3.67;3.67;;;;;;;;5102554;27;61777;-82
2022/08/12 14:25:57;;;;;;;;;3.00;3.00;;;;;;;;5103402;27;61820;-82
2022/08/12 14:28:23;;;;;;;;;6.00;3.33;;;;;;;;5102378;27;61953;-82
2022/08/12 14:31:01;;;;;;;;;2.00;2.00;;;;;;;;5103118;27;61888;-82
2022/08/12 14:33:28;;;;;;;;;2.00;2.00;;;;;;;;5102540;27;61967;-82
2022/08/12 14:35:55;;;;;;;;;2.67;2.67;;;;;;;;5103037;27;61689;-82
2022/08/12 14:38:25;;;;;;;;;4.00;4.00;;;;;;;;5101638;27;62007;-82
2022/08/12 14:40:51;;;;;;;;;4.00;4.00;;;;;;;;5101172;27;61747;-82
2022/08/12 14:43:18;;;;;;;;;4.33;3.00;;;;;;;;5102356;27;61987;-82
2022/08/12 14:45:43;;;;;;;;;2.00;2.00;;;;;;;;5102595;27;61734;-83
2022/08/12 14:48:10;;;;;;;;;3.00;3.00;;;;;;;;5103061;27;61962;-83
2022/08/12 14:50:35;;;;;;;;;4.67;3.67;;;;;;;;5101076;27;61931;-82
2022/08/12 14:53:01;;;;;;;;;3.33;3.33;;;;;;;;5101316;27;61761;-82
2022/08/12 14:55:32;;;;;;;;;3.67;3.67;;;;;;;;5103552;27;61744;-82
2022/08/12 14:57:58;;;;;;;;;3.00;2.67;;;;;;;;5103363;27;61719;-82
2022/08/12 15:03:08;;;;;;;;;3.33;3.33;;;;;;;;5102464;27;61705;-82
2022/08/12 15:05:37;;;;;;;;;2.67;2.67;;;;;;;;5102001;27;61943;-82
2022/08/12 15:08:11;;;;;;;;;3.67;2.67;;;;;;;;5103233;27;61784;-82
2022/08/12 15:10:43;;;;;;;;;4.00;3.00;;;;;;;;5103113;27;62125;-82
2022/08/12 15:13:09;;;;;;;;;2.67;2.67;;;;;;;;5101864;27;62092;-82
2022/08/12 15:15:37;;;;;;;;;2.33;2.33;;;;;;;;5103259;27;61856;-82
2022/08/12 15:18:03;;;;;;;;;3.33;2.33;;;;;;;;5101344;27;61983;-82
2022/08/12 15:20:28;;;;;;;;;3.00;3.00;;;;;;;;5105315;27;61931;-82
2022/08/12 15:22:55;;;;;;;;;3.67;3.00;;;;;;;;5103837;27;64864;-81
2022/08/12 15:25:20;;;;;;;;;4.00;4.00;;;;;;;;5105375;27;62110;-83
2022/08/12 15:27:48;;;;;;;;;3.33;3.33;;;;;;;;5104778;27;62082;-83
2022/08/12 15:30:15;;;;;;;;;3.00;3.00;;;;;;;;5106666;27;61679;-82
2022/08/12 15:32:40;;;;;;;;;4.00;4.00;;;;;;;;5105560;27;61941;-82
2022/08/12 15:35:05;;;;;;;;;4.33;3.33;;;;;;;;5104888;27;61735;-83
2022/08/12 15:37:31;;;;;;;;;3.67;2.67;;;;;;;;5105194;27;61997;-83
2022/08/12 15:39:56;;;;;;;;;2.00;2.00;;;;;;;;5105041;27;61749;-83
2022/08/12 15:42:23;;;;;;;;;3.00;3.00;;;;;;;;5103841;27;63600;-82
2022/08/12 15:44:48;;;;;;;;;3.33;3.33;;;;;;;;5106309;27;61830;-82
2022/08/12 15:47:14;;;;;;;;;2.67;2.67;;;;;;;;5104331;27;61818;-82
2022/08/12 15:49:40;;;;;;;;;3.00;3.00;;;;;;;;5106489;27;61698;-82
2022/08/12 15:52:05;;;;;;;;;2.00;2.00;;;;;;;;5104248;27;63852;-82
2022/08/12 15:54:30;;;;;;;;;3.00;2.33;;;;;;;;5105541;27;61985;-82
2022/08/12 15:56:56;;;;;;;;;3.00;3.00;;;;;;;;5105942;27;61775;-82
2022/08/12 15:59:21;;;;;;;;;2.67;2.67;;;;;;;;5104814;27;61773;-82
2022/08/12 16:01:46;;;;;;;;;3.00;3.00;;;;;;;;5104299;27;63807;-82
2022/08/12 16:04:12;;;;;;;;;4.00;4.00;;;;;;;;5104253;27;62203;-82
2022/08/12 16:06:37;;;;;;;;;4.00;4.00;;;;;;;;5106011;27;61784;-82
2022/08/12 16:09:03;;;;;;;;;3.67;2.67;;;;;;;;5104724;27;61923;-82
2022/08/12 16:11:41;;;;;;;;;3.00;3.00;;;;;;;;5103704;27;64875;-82
2022/08/12 16:14:08;;;;;;;;;2.33;2.33;;;;;;;;5106015;27;61743;-82
2022/08/12 16:16:34;;;;;;;;;3.33;3.33;;;;;;;;5105862;27;61864;-82
2022/08/12 16:18:59;;;;;;;;;0.00;0.00;;;;;;;;5104225;27;61909;-82